Terminal Aerodrome Forecast
Issued by NWS El Paso, TX

Home | Current Version | Previous Version | Text Only | Print | Product List | Glossary On
Versions: 1 2 3 4 5 6 7 8 9 10 11 12 13 14 15 16 17 18 19
140
FTUS44 KEPZ 312146 AAA
TAFELP
TAF AMD
KELP 312146Z 3122/0118 36009KT P6SM SCT050 BKN110
     FM010000 03008KT P6SM VCSH SCT045 BKN110
      TEMPO 0101/0104 5SM -SHRA BKN040 BKN100
     FM011200 05007KT P6SM BKN040 BKN080=

USA.gov is the U.S. government's official web portal to all federal, state and local government web resources and services.